Time;durP1;ratioP1;P1;durP2;ratioP2;P2;SDS_P1;SDS_P2;PMS_P1;PMS_P2;Temp;Humidity;BMP_temperature;BMP_pressure;BME280_temperature;BME280_humidity;BME280_pressure;Samples;Min_cycle;Max_cycle;Signal;HPM_P1;HPM_P2
2023/03/21 00:01:14;;;;;;;2.15;0.40;;;;;;;10.10;100.00;99154.38;4952783;29;20034;-81
2023/03/21 00:03:42;;;;;;;4.22;0.43;;;;;;;10.11;100.00;99148.13;4942837;29;20027;-81
2023/03/21 00:06:12;;;;;;;2.85;0.55;;;;;;;10.13;100.00;99144.31;4922685;29;20437;-82
2023/03/21 00:08:41;;;;;;;2.13;0.45;;;;;;;10.17;100.00;99152.72;4928427;29;20046;-81
2023/03/21 00:11:11;;;;;;;4.15;0.77;;;;;;;10.18;100.00;99144.63;4945495;29;20042;-82
2023/03/21 00:13:42;;;;;;;7.55;0.80;;;;;;;10.21;100.00;99142.63;4948554;29;20063;-81
2023/03/21 00:16:15;;;;;;;9.23;1.10;;;;;;;10.22;100.00;99137.19;4911451;28;20035;-81
2023/03/21 00:18:51;;;;;;;13.02;1.15;;;;;;;10.21;100.00;99135.53;4900836;29;20563;-82
2023/03/21 00:21:31;;;;;;;4.80;1.08;;;;;;;10.18;100.00;99131.41;4946477;28;20089;-81
2023/03/21 00:24:00;;;;;;;5.43;0.70;;;;;;;10.13;100.00;99131.13;4939603;28;20403;-82
2023/03/21 00:26:30;;;;;;;8.18;0.85;;;;;;;10.11;100.00;99137.56;4898224;29;20038;-81
2023/03/21 00:28:58;;;;;;;5.13;0.98;;;;;;;10.08;100.00;99128.16;4897352;29;20123;-81
2023/03/21 00:31:28;;;;;;;6.47;1.48;;;;;;;10.11;100.00;99119.09;4952336;28;20122;-81
2023/03/21 00:33:58;;;;;;;7.55;1.25;;;;;;;10.13;100.00;99114.47;4936150;29;20039;-81
2023/03/21 00:36:27;;;;;;;14.00;1.30;;;;;;;10.12;100.00;99116.28;4917605;29;20335;-81
2023/03/21 00:38:55;;;;;;;11.30;1.10;;;;;;;10.09;100.00;99110.50;4918864;29;20032;-81
2023/03/21 00:41:22;;;;;;;9.27;1.35;;;;;;;10.09;100.00;99102.59;4913026;29;20031;-81
2023/03/21 00:43:54;;;;;;;9.25;1.45;;;;;;;10.05;100.00;99096.84;4895713;29;20046;-81
2023/03/21 00:46:24;;;;;;;11.73;1.88;;;;;;;10.07;100.00;99096.66;4946790;29;20086;-82
2023/03/21 00:48:54;;;;;;;14.38;1.55;;;;;;;10.04;100.00;99088.09;4913876;29;20038;-82
2023/03/21 00:51:26;;;;;;;14.30;1.90;;;;;;;10.03;100.00;99077.72;4935994;29;20035;-81
2023/03/21 00:53:56;;;;;;;11.35;1.52;;;;;;;10.05;100.00;99075.72;4940262;29;20039;-81
2023/03/21 00:56:29;;;;;;;8.95;1.45;;;;;;;10.05;100.00;99073.06;4910925;29;20050;-81
2023/03/21 00:58:59;;;;;;;12.55;1.40;;;;;;;10.06;100.00;99066.81;4895570;29;20468;-81
2023/03/21 01:01:30;;;;;;;11.50;1.38;;;;;;;10.04;100.00;99056.44;4939143;29;20437;-82
2023/03/21 01:04:04;;;;;;;12.70;1.45;;;;;;;10.04;100.00;99050.31;4918355;29;20035;-81
2023/03/21 01:06:40;;;;;;;9.88;1.55;;;;;;;10.01;100.00;99050.69;4940518;29;20042;-82
2023/03/21 01:09:17;;;;;;;8.57;1.17;;;;;;;10.00;100.00;99041.13;4911182;29;20453;-82
2023/03/21 01:11:47;;;;;;;12.40;1.77;;;;;;;9.99;100.00;99035.00;4933737;29;20094;-81
2023/03/21 01:14:18;;;;;;;13.50;1.10;;;;;;;9.98;100.00;99035.19;4943143;29;20036;-82
2023/03/21 01:16:46;;;;;;;12.30;1.67;;;;;;;9.93;100.00;99031.25;4920603;29;20070;-81
2023/03/21 01:19:16;;;;;;;15.80;1.80;;;;;;;9.96;100.00;99029.25;4927252;29;20046;-81
2023/03/21 01:21:45;;;;;;;15.77;1.75;;;;;;;9.91;100.00;99017.41;4934003;29;20039;-82
2023/03/21 01:24:14;;;;;;;15.30;1.90;;;;;;;9.91;100.00;99008.66;4912430;29;20043;-81
2023/03/21 01:26:42;;;;;;;18.65;2.30;;;;;;;9.87;100.00;99010.03;4932743;29;20032;-78
2023/03/21 01:29:11;;;;;;;17.42;1.90;;;;;;;9.85;100.00;99007.56;4913976;29;20047;-78
2023/03/21 01:31:39;;;;;;;26.60;2.58;;;;;;;9.82;100.00;99000.00;4931535;29;20040;-81
2023/03/21 01:34:08;;;;;;;20.77;2.60;;;;;;;9.82;100.00;98997.34;4922182;29;20047;-81
2023/03/21 01:36:36;;;;;;;27.75;2.78;;;;;;;9.78;100.00;98986.31;4932037;29;20155;-79
2023/03/21 01:39:10;;;;;;;19.80;2.72;;;;;;;9.75;100.00;98978.75;4922001;29;20039;-78
2023/03/21 01:41:40;;;;;;;17.70;2.38;;;;;;;9.73;100.00;98979.94;4935003;29;20035;-81
2023/03/21 01:44:17;;;;;;;15.73;2.05;;;;;;;9.68;100.00;98973.34;4928382;29;20436;-82
2023/03/21 01:46:48;;;;;;;22.70;2.08;;;;;;;9.66;100.00;98963.97;4923031;29;20039;-81
2023/03/21 01:49:48;;;;;;;15.30;2.38;;;;;;;9.63;100.00;98961.69;4903688;29;20087;-82
2023/03/21 01:52:40;;;;;;;18.55;2.15;;;;;;;9.61;100.00;98956.59;4935974;29;20043;-82
2023/03/21 01:55:18;;;;;;;14.25;1.88;;;;;;;9.62;100.00;98957.41;4947463;28;20063;-82
2023/03/21 01:58:10;;;;;;;13.40;2.40;;;;;;;9.63;100.00;98954.59;4921190;28;20507;-81
2023/03/21 02:00:50;;;;;;;11.75;1.65;;;;;;;9.61;100.00;98947.84;4940674;29;20063;-81
2023/03/21 02:03:36;;;;;;;18.02;2.40;;;;;;;9.64;100.00;98952.78;4963696;28;20043;-81
2023/03/21 02:06:24;;;;;;;12.95;1.67;;;;;;;9.65;100.00;98946.53;4950391;28;20512;-81
2023/03/21 02:09:03;;;;;;;16.02;1.90;;;;;;;9.66;100.00;98934.97;4930709;28;20109;-81
2023/03/21 02:11:32;;;;;;;12.65;2.13;;;;;;;9.64;100.00;98929.84;4972271;28;20034;-80
2023/03/21 02:14:00;;;;;;;15.15;1.83;;;;;;;9.66;100.00;98922.59;4946461;28;20109;-81
2023/03/21 02:16:55;;;;;;;17.55;1.83;;;;;;;9.67;100.00;98912.84;4930693;28;20038;-82
2023/03/21 02:19:46;;;;;;;15.18;2.20;;;;;;;9.66;100.00;98916.50;4957139;28;20031;-81
2023/03/21 02:22:35;;;;;;;15.38;1.45;;;;;;;9.67;100.00;98913.69;4945754;28;20082;-82
2023/03/21 02:25:30;;;;;;;12.93;2.25;;;;;;;9.67;100.00;98908.41;4953836;28;20030;-81
2023/03/21 02:28:07;;;;;;;12.48;2.05;;;;;;;9.65;100.00;98902.47;4950889;28;20057;-82
2023/03/21 02:31:18;;;;;;;14.00;1.77;;;;;;;9.68;100.00;98893.41;4928619;28;20042;-82
2023/03/21 02:34:07;;;;;;;12.00;1.33;;;;;;;9.67;100.00;98894.38;4931000;28;20040;-82
2023/03/21 02:36:56;;;;;;;15.60;1.95;;;;;;;9.71;100.00;98879.03;4935341;28;20083;-82
2023/03/21 02:39:37;;;;;;;14.23;2.08;;;;;;;9.68;100.00;98881.00;4937207;28;20125;-82
2023/03/21 02:42:17;;;;;;;9.27;1.67;;;;;;;9.72;100.00;98872.75;4937066;28;20045;-82
2023/03/21 02:45:16;;;;;;;16.52;1.52;;;;;;;9.72;100.00;98864.81;4927977;29;20050;-82
2023/03/21 02:47:59;;;;;;;15.55;2.72;;;;;;;9.66;100.00;98866.38;4911352;28;20043;-82
2023/03/21 02:50:42;;;;;;;9.20;1.83;;;;;;;9.66;100.00;98854.00;4932337;28;20035;-81
2023/03/21 02:53:17;;;;;;;13.10;1.83;;;;;;;9.66;100.00;98853.19;4929564;29;20050;-81
2023/03/21 02:55:49;;;;;;;18.92;2.25;;;;;;;9.64;100.00;98849.88;4938773;28;20079;-81
2023/03/21 02:58:23;;;;;;;14.95;1.63;;;;;;;9.64;100.00;98841.97;4952052;29;20039;-81
2023/03/21 03:00:56;;;;;;;14.63;1.45;;;;;;;9.65;100.00;98848.91;4925797;29;20039;-81
2023/03/21 03:03:31;;;;;;;17.00;1.57;;;;;;;9.58;100.00;98830.31;4912092;29;20042;-81
2023/03/21 03:06:05;;;;;;;13.00;1.48;;;;;;;9.60;100.00;98838.88;4946769;29;20114;-81
2023/03/21 03:08:59;;;;;;;15.35;1.45;;;;;;;9.65;100.00;98835.72;4920171;29;20070;-81
2023/03/21 03:11:35;;;;;;;18.05;1.65;;;;;;;9.66;100.00;98832.91;4930451;29;20067;-81
2023/03/21 03:14:23;;;;;;;6.13;0.98;;;;;;;9.66;100.00;98826.78;4915112;29;20039;-81
2023/03/21 03:17:09;;;;;;;6.88;0.80;;;;;;;9.67;100.00;98820.50;4898898;29;20043;-81
2023/03/21 03:19:51;;;;;;;12.52;1.15;;;;;;;9.68;100.00;98824.81;4886276;29;20035;-81
2023/03/21 03:22:28;;;;;;;8.15;1.05;;;;;;;9.65;100.00;98819.88;4911450;29;20480;-81
2023/03/21 03:25:04;;;;;;;6.78;1.45;;;;;;;9.67;100.00;98809.97;4896835;29;20039;-81
2023/03/21 03:27:41;;;;;;;8.15;1.00;;;;;;;9.67;100.00;98818.69;4921547;29;20039;-81
2023/03/21 03:30:12;;;;;;;10.38;1.00;;;;;;;9.67;100.00;98821.34;4929323;29;20454;-82
2023/03/21 03:32:52;;;;;;;10.70;1.35;;;;;;;9.69;100.00;98815.88;4928773;29;20031;-78
2023/03/21 03:35:22;;;;;;;3.95;0.50;;;;;;;9.67;100.00;98825.78;4911980;29;21202;-81
2023/03/21 03:37:57;;;;;;;6.75;0.93;;;;;;;9.70;100.00;98808.81;4946777;29;20043;-81
2023/03/21 03:41:04;;;;;;;5.20;0.50;;;;;;;9.66;100.00;98803.88;4911208;29;20049;-81
2023/03/21 03:43:47;;;;;;;3.75;0.57;;;;;;;9.67;100.00;98802.03;4937613;28;20491;-81
2023/03/21 03:46:28;;;;;;;4.93;0.80;;;;;;;9.69;100.00;98800.06;4928649;29;20031;-82
2023/03/21 03:49:17;;;;;;;4.63;0.80;;;;;;;9.73;100.00;98797.88;4930280;29;20422;-81
2023/03/21 03:51:45;;;;;;;10.13;0.95;;;;;;;9.75;100.00;98803.78;4933556;29;20042;-82
2023/03/21 03:54:32;;;;;;;5.07;0.60;;;;;;;9.79;100.00;98799.81;4938762;29;20028;-81
2023/03/21 03:57:05;;;;;;;3.88;0.93;;;;;;;9.83;100.00;98800.25;4931668;28;20047;-81
2023/03/21 03:59:37;;;;;;;4.75;0.85;;;;;;;9.85;100.00;98804.34;4914573;29;20043;-81
2023/03/21 04:02:26;;;;;;;6.90;0.63;;;;;;;9.86;100.00;98805.97;4946748;28;20036;-81
2023/03/21 04:04:56;;;;;;;6.10;0.60;;;;;;;9.88;100.00;98805.81;4896177;28;20034;-81
2023/03/21 04:07:24;;;;;;;8.52;0.93;;;;;;;9.93;100.00;98804.28;4922780;29;20564;-81
2023/03/21 04:09:54;;;;;;;6.93;0.80;;;;;;;9.88;100.00;98805.81;4889641;29;20034;-82
2023/03/21 04:12:23;;;;;;;8.52;0.90;;;;;;;9.91;100.00;98816.00;4912418;29;20507;-81
2023/03/21 04:15:29;;;;;;;5.13;0.80;;;;;;;9.86;100.00;98815.75;4897094;29;20040;-81
2023/03/21 04:18:05;;;;;;;7.28;0.85;;;;;;;9.90;100.00;98819.66;4896265;29;20107;-81
2023/03/21 04:20:33;;;;;;;4.22;0.60;;;;;;;9.89;100.00;98824.09;4910163;29;20050;-82
2023/03/21 04:23:03;;;;;;;7.07;0.80;;;;;;;9.88;100.00;98829.56;4916365;29;20121;-81
2023/03/21 04:25:36;;;;;;;6.82;0.93;;;;;;;9.85;100.00;98835.19;4934574;29;20053;-81
2023/03/21 04:28:07;;;;;;;4.18;0.60;;;;;;;9.78;100.00;98835.09;4927824;29;20071;-81
2023/03/21 04:30:51;;;;;;;7.00;0.80;;;;;;;9.73;100.00;98840.09;4933759;28;20054;-81
2023/03/21 04:33:24;;;;;;;4.82;0.63;;;;;;;9.67;100.00;98846.88;4934016;29;21072;-82
2023/03/21 04:35:57;;;;;;;7.15;0.68;;;;;;;9.66;100.00;98845.25;4936816;28;20054;-82
2023/03/21 04:38:29;;;;;;;8.88;0.80;;;;;;;9.59;100.00;98849.63;4918432;29;20110;-81
2023/03/21 04:41:03;;;;;;;4.47;1.17;;;;;;;9.60;100.00;98854.72;4924792;28;20104;-82
2023/03/21 04:43:32;;;;;;;3.08;0.50;;;;;;;9.57;100.00;98857.72;4915052;29;20051;-81
2023/03/21 04:45:59;;;;;;;5.30;0.57;;;;;;;9.51;100.00;98869.78;4930182;28;20067;-81
2023/03/21 04:48:29;;;;;;;4.72;0.60;;;;;;;9.52;100.00;98865.31;4950125;29;20488;-81
2023/03/21 04:50:59;;;;;;;2.58;0.38;;;;;;;9.47;100.00;98865.84;4927273;29;20035;-81
2023/03/21 04:53:30;;;;;;;4.07;0.40;;;;;;;9.46;100.00;98866.84;4942401;28;20043;-81
2023/03/21 04:55:58;;;;;;;7.07;0.55;;;;;;;9.42;100.00;98878.75;4903459;29;20079;-78
2023/03/21 04:58:26;;;;;;;6.47;0.50;;;;;;;9.42;100.00;98884.00;4930028;29;20035;-78
2023/03/21 05:00:54;;;;;;;5.65;0.57;;;;;;;9.35;100.00;98891.00;4919374;29;20054;-80
2023/03/21 05:03:24;;;;;;;2.92;0.45;;;;;;;9.34;100.00;98900.72;4922453;29;20039;-82
2023/03/21 05:05:51;;;;;;;2.03;0.57;;;;;;;9.28;100.00;98901.41;4935119;29;20050;-78
2023/03/21 05:08:20;;;;;;;4.45;0.70;;;;;;;9.32;100.00;98910.59;4931164;29;20073;-79
2023/03/21 05:10:47;;;;;;;4.88;0.65;;;;;;;9.25;100.00;98907.03;4917826;29;20035;-82
2023/03/21 05:13:17;;;;;;;8.05;1.00;;;;;;;9.22;100.00;98913.47;4945583;29;20030;-82
2023/03/21 05:15:45;;;;;;;5.35;0.68;;;;;;;9.18;100.00;98925.34;4936708;29;20609;-82
2023/03/21 05:18:14;;;;;;;6.03;0.85;;;;;;;9.20;100.00;98928.66;4930684;29;20038;-82
2023/03/21 05:20:58;;;;;;;5.35;0.80;;;;;;;9.18;100.00;98920.09;4932233;29;20544;-82
2023/03/21 05:23:30;;;;;;;5.53;0.70;;;;;;;9.22;100.00;98924.00;4928158;29;20036;-82
2023/03/21 05:26:00;;;;;;;5.72;0.98;;;;;;;9.22;100.00;98925.84;4901204;29;20039;-82
2023/03/21 05:28:49;;;;;;;2.17;0.70;;;;;;;9.24;100.00;98924.66;4904182;29;20034;-82
2023/03/21 05:31:19;;;;;;;2.30;0.43;;;;;;;9.23;100.00;98922.19;4930427;29;20039;-82
2023/03/21 05:33:48;;;;;;;4.05;0.52;;;;;;;9.20;100.00;98922.53;4930585;29;20039;-82
2023/03/21 05:36:19;;;;;;;2.67;0.50;;;;;;;9.20;100.00;98925.19;4921738;29;20114;-82
2023/03/21 05:38:49;;;;;;;5.45;0.43;;;;;;;9.18;100.00;98936.72;4926395;29;20039;-82
2023/03/21 05:41:18;;;;;;;4.53;0.57;;;;;;;9.14;100.00;98935.41;4909208;29;20495;-82
2023/03/21 05:43:46;;;;;;;3.33;0.68;;;;;;;9.11;100.00;98932.31;4924182;29;20031;-82
2023/03/21 05:46:15;;;;;;;2.67;0.30;;;;;;;9.06;100.00;98922.31;4921434;29;20182;-82
2023/03/21 05:48:44;;;;;;;2.60;0.40;;;;;;;9.01;100.00;98929.88;4917366;29;20039;-82
2023/03/21 05:51:15;;;;;;;3.95;0.50;;;;;;;8.95;100.00;98931.38;4936352;29;20492;-82
2023/03/21 05:53:45;;;;;;;2.00;0.55;;;;;;;8.93;100.00;98928.13;4896657;29;20043;-82
2023/03/21 05:56:15;;;;;;;3.42;0.50;;;;;;;8.85;100.00;98936.88;4928728;28;20098;-82
2023/03/21 05:58:56;;;;;;;5.13;0.35;;;;;;;8.77;100.00;98940.38;4971573;28;20038;-82
2023/03/21 06:01:27;;;;;;;1.63;0.30;;;;;;;8.76;100.00;98948.44;4937798;29;20041;-82
2023/03/21 06:04:07;;;;;;;5.97;0.40;;;;;;;8.73;100.00;98946.94;4935722;28;20038;-82
2023/03/21 06:06:36;;;;;;;1.25;0.30;;;;;;;8.70;100.00;98955.19;4967528;28;20117;-82
2023/03/21 06:09:05;;;;;;;4.88;0.77;;;;;;;8.68;100.00;98951.88;4946580;28;20034;-82
2023/03/21 06:11:35;;;;;;;4.78;0.63;;;;;;;8.67;100.00;98956.34;4958367;28;20035;-82
2023/03/21 06:14:21;;;;;;;6.40;0.98;;;;;;;8.66;100.00;98961.78;4956346;28;20038;-81
2023/03/21 06:17:08;;;;;;;3.13;0.52;;;;;;;8.66;100.00;98981.03;4952493;28;20031;-82
2023/03/21 06:19:42;;;;;;;12.98;1.38;;;;;;;8.65;100.00;98971.50;4949625;28;20038;-81
2023/03/21 06:22:18;;;;;;;4.88;0.52;;;;;;;8.64;100.00;98977.78;4946572;28;20106;-81
2023/03/21 06:24:46;;;;;;;3.78;0.40;;;;;;;8.63;100.00;98981.38;4949743;28;20078;-82
2023/03/21 06:27:14;;;;;;;4.22;0.60;;;;;;;8.64;100.00;98984.84;4955343;28;20054;-82
2023/03/21 06:29:50;;;;;;;7.82;0.82;;;;;;;8.62;100.00;98994.72;4935478;28;20034;-82
2023/03/21 06:32:20;;;;;;;5.45;0.65;;;;;;;8.65;100.00;98984.66;4931733;28;20035;-81
2023/03/21 06:34:55;;;;;;;4.43;0.50;;;;;;;8.66;100.00;98986.31;4933633;28;20030;-82
2023/03/21 06:37:23;;;;;;;6.95;0.80;;;;;;;8.65;100.00;99002.28;4956225;28;20465;-81
2023/03/21 06:39:52;;;;;;;3.83;0.70;;;;;;;8.69;100.00;99004.41;4952093;28;20038;-81
2023/03/21 06:42:21;;;;;;;7.32;0.60;;;;;;;8.67;100.00;99009.03;4932311;28;20063;-81
2023/03/21 06:44:50;;;;;;;7.95;0.75;;;;;;;8.73;100.00;99002.25;4944438;28;20104;-81
2023/03/21 06:47:18;;;;;;;7.10;0.65;;;;;;;8.72;100.00;99008.53;4958098;28;20035;-81
2023/03/21 06:49:49;;;;;;;7.07;0.80;;;;;;;8.75;100.00;99008.19;4930232;28;20098;-81
2023/03/21 06:52:19;;;;;;;4.00;1.05;;;;;;;8.82;100.00;99016.25;4950688;28;20042;-81
2023/03/21 06:54:50;;;;;;;9.80;0.82;;;;;;;8.85;100.00;99023.00;4952052;28;20031;-81
2023/03/21 06:57:20;;;;;;;6.80;0.73;;;;;;;8.84;100.00;99016.09;4930203;29;20055;-81
2023/03/21 06:59:49;;;;;;;8.38;0.60;;;;;;;8.78;100.00;99018.41;4912178;29;20049;-81
2023/03/21 07:02:20;;;;;;;3.30;0.60;;;;;;;8.80;100.00;99020.88;4932378;29;20035;-82
2023/03/21 07:04:57;;;;;;;8.85;0.77;;;;;;;8.84;100.00;99024.00;4901475;29;20050;-82
2023/03/21 07:07:30;;;;;;;4.30;0.70;;;;;;;8.91;100.00;99027.59;4933054;29;20676;-81
2023/03/21 07:10:00;;;;;;;4.20;1.52;;;;;;;8.93;100.00;99030.88;4908990;29;20031;-81
2023/03/21 07:12:34;;;;;;;5.40;0.73;;;;;;;8.92;100.00;99039.75;4918075;29;20035;-81
2023/03/21 07:15:19;;;;;;;5.20;0.43;;;;;;;8.95;100.00;99047.34;4936126;29;20038;-81
2023/03/21 07:17:47;;;;;;;9.13;0.93;;;;;;;8.97;100.00;99053.25;4935638;28;20047;-81
2023/03/21 07:20:17;;;;;;;5.72;0.80;;;;;;;9.05;100.00;99060.31;4940950;28;20028;-82
2023/03/21 07:22:47;;;;;;;5.32;0.90;;;;;;;9.16;100.00;99057.34;4916189;29;20043;-81
2023/03/21 07:25:18;;;;;;;6.60;0.60;;;;;;;9.18;100.00;99049.25;4922907;29;20043;-81
2023/03/21 07:27:48;;;;;;;12.93;0.85;;;;;;;9.21;100.00;99051.56;4917116;29;20039;-81
2023/03/21 07:30:16;;;;;;;4.88;0.85;;;;;;;9.17;100.00;99051.06;4952372;29;20035;-81
2023/03/21 07:32:46;;;;;;;7.75;0.73;;;;;;;9.17;100.00;99060.81;4914057;29;20499;-81
2023/03/21 07:35:16;;;;;;;8.32;0.80;;;;;;;9.12;100.00;99065.75;4915502;29;20035;-81
2023/03/21 07:37:44;;;;;;;5.75;0.60;;;;;;;9.07;100.00;99079.44;4918032;29;20042;-81
2023/03/21 07:40:15;;;;;;;6.47;0.85;;;;;;;8.98;100.00;99077.81;4941100;28;20047;-81
2023/03/21 07:42:49;;;;;;;7.90;0.52;;;;;;;9.00;100.00;99076.66;4927246;28;20117;-81
2023/03/21 07:45:28;;;;;;;7.88;0.82;;;;;;;9.13;100.00;99076.13;4947131;29;20775;-82
2023/03/21 07:47:58;;;;;;;7.35;0.70;;;;;;;9.26;100.00;99065.06;4919135;29;20429;-82
2023/03/21 07:50:25;;;;;;;7.63;0.82;;;;;;;9.27;100.00;99057.97;4901798;29;20487;-81
2023/03/21 07:52:54;;;;;;;4.55;0.63;;;;;;;9.34;100.00;99043.09;4933656;29;20041;-82
2023/03/21 07:55:22;;;;;;;7.88;0.65;;;;;;;9.37;100.00;99055.13;4920466;28;20491;-82
2023/03/21 07:57:51;;;;;;;3.35;0.50;;;;;;;9.38;100.00;99041.75;4953120;28;20133;-81
2023/03/21 08:00:21;;;;;;;4.65;0.35;;;;;;;9.43;100.00;99050.00;4962892;28;20042;-81
2023/03/21 08:02:56;;;;;;;7.72;0.90;;;;;;;9.50;100.00;99039.59;4964086;28;20475;-81
2023/03/21 08:05:29;;;;;;;5.75;0.75;;;;;;;9.58;100.00;99037.88;4962801;28;20027;-81
2023/03/21 08:07:59;;;;;;;4.60;0.73;;;;;;;9.70;100.00;99041.78;4907351;28;20083;-81
2023/03/21 08:10:29;;;;;;;5.97;0.75;;;;;;;9.83;100.00;99045.66;4944100;28;20050;-82
2023/03/21 08:12:58;;;;;;;10.75;0.90;;;;;;;9.87;100.00;99054.88;4954964;28;20046;-82
2023/03/21 08:15:26;;;;;;;6.70;0.70;;;;;;;9.90;100.00;99052.72;4939003;28;20120;-82
2023/03/21 08:17:55;;;;;;;10.85;1.17;;;;;;;9.98;100.00;99053.66;4964788;28;20026;-81
2023/03/21 08:20:22;;;;;;;5.55;0.45;;;;;;;9.99;100.00;99047.38;4966039;28;20093;-81
2023/03/21 08:22:51;;;;;;;7.45;0.95;;;;;;;10.09;100.00;99040.06;4951474;28;20483;-81
2023/03/21 08:25:21;;;;;;;7.57;0.98;;;;;;;10.15;100.00;99036.72;4945733;28;20033;-81
2023/03/21 08:27:50;;;;;;;5.07;0.95;;;;;;;10.28;100.00;99027.38;4938140;28;20046;-82
2023/03/21 08:30:21;;;;;;;5.70;1.02;;;;;;;10.34;100.00;99021.38;4935371;28;20153;-81
2023/03/21 08:32:50;;;;;;;10.20;0.80;;;;;;;10.40;100.00;99025.16;4955569;28;20387;-81
2023/03/21 08:35:19;;;;;;;6.65;1.65;;;;;;;10.39;100.00;99023.47;4942446;28;20074;-81
2023/03/21 08:37:48;;;;;;;7.00;0.70;;;;;;;10.39;100.00;99018.19;4950648;28;20403;-81
2023/03/21 08:40:19;;;;;;;5.60;1.00;;;;;;;10.37;100.00;99022.84;4951045;28;20027;-82
2023/03/21 08:42:48;;;;;;;7.10;1.10;;;;;;;10.37;100.00;99031.59;4930712;28;20054;-81
2023/03/21 08:45:17;;;;;;;5.68;0.90;;;;;;;10.36;100.00;99037.88;4951774;28;20027;-81
2023/03/21 08:47:45;;;;;;;8.75;0.93;;;;;;;10.36;100.00;99040.53;4929466;28;20035;-82
2023/03/21 08:50:17;;;;;;;5.70;0.90;;;;;;;10.31;100.00;99042.88;4912308;28;20130;-81
2023/03/21 08:52:48;;;;;;;6.00;0.52;;;;;;;10.24;100.00;99050.66;4949440;28;20502;-81
2023/03/21 08:55:18;;;;;;;5.15;0.52;;;;;;;10.13;100.00;99046.63;4948591;28;20702;-81
2023/03/21 08:57:48;;;;;;;4.63;0.70;;;;;;;10.07;100.00;99043.84;4954846;28;20045;-81
2023/03/21 09:00:19;;;;;;;5.53;0.52;;;;;;;10.04;100.00;99053.78;4946868;28;20043;-81
2023/03/21 09:02:51;;;;;;;3.83;0.60;;;;;;;10.06;100.00;99053.63;4920208;28;20103;-81
2023/03/21 09:05:22;;;;;;;4.22;0.60;;;;;;;10.08;100.00;99053.44;4949312;28;20113;-81
2023/03/21 09:07:52;;;;;;;5.53;0.47;;;;;;;10.12;100.00;99041.53;4935605;28;20078;-81
2023/03/21 09:10:23;;;;;;;2.38;0.40;;;;;;;10.14;100.00;99037.72;4938222;28;20499;-81
2023/03/21 09:12:54;;;;;;;3.13;0.60;;;;;;;10.23;100.00;99045.56;4964547;28;20113;-81
2023/03/21 09:15:27;;;;;;;5.40;0.40;;;;;;;10.27;100.00;99036.31;4962242;28;20034;-81
2023/03/21 09:18:13;;;;;;;2.20;0.20;;;;;;;10.35;100.00;99030.13;4939578;28;20046;-81
2023/03/21 09:20:46;;;;;;;2.25;0.30;;;;;;;10.35;100.00;99023.00;4942876;28;20166;-81
2023/03/21 09:23:17;;;;;;;5.65;0.80;;;;;;;10.39;100.00;99018.19;4963368;28;20043;-81
2023/03/21 09:25:47;;;;;;;1.23;0.20;;;;;;;10.47;100.00;99020.81;4967609;28;20031;-81
2023/03/21 09:28:16;;;;;;;4.32;0.32;;;;;;;10.49;100.00;99033.84;4945138;28;20070;-80
2023/03/21 09:30:45;;;;;;;1.83;0.40;;;;;;;10.45;100.00;99020.13;4949400;28;20043;-81
2023/03/21 09:33:18;;;;;;;4.85;0.28;;;;;;;10.39;100.00;99034.88;4948238;28;20034;-81
2023/03/21 09:35:46;;;;;;;2.92;0.30;;;;;;;10.38;100.00;99025.28;4951601;28;20047;-81
2023/03/21 09:38:14;;;;;;;7.15;0.65;;;;;;;10.43;100.00;99030.88;4958790;28;20156;-81
2023/03/21 09:41:11;;;;;;;4.45;0.90;;;;;;;10.51;100.00;99023.94;4952679;28;20038;-81
2023/03/21 09:43:52;;;;;;;0.75;0.20;;;;;;;10.57;100.00;99028.50;4944836;28;20034;-81
2023/03/21 09:46:28;;;;;;;4.65;0.57;;;;;;;10.63;100.00;99033.06;4951643;28;20407;-81
2023/03/21 09:49:06;;;;;;;;;;;;;;;10.52;100.00;99034.31;4945653;28;20038;-80
2023/03/21 09:51:41;;;;;;;2.80;0.65;;;;;;;10.59;100.00;99036.22;4960820;28;19914;-81
2023/03/21 09:54:32;;;;;;;4.88;0.70;;;;;;;10.63;100.00;99037.50;4966477;28;20085;-81
2023/03/21 09:57:18;;;;;;;5.05;0.43;;;;;;;10.70;100.00;99025.22;4946605;28;20062;-81
2023/03/21 09:59:52;;;;;;;;;;;;;;;10.64;100.00;99016.19;4917015;29;20036;-81
2023/03/21 10:02:40;;;;;;;6.05;0.80;;;;;;;10.77;100.00;99007.63;4942886;29;19965;-81
2023/03/21 10:05:19;;;;;;;1.65;0.43;;;;;;;10.75;100.00;99011.47;4932495;29;20036;-81
2023/03/21 10:08:21;;;;;;;2.47;0.40;;;;;;;10.77;100.00;99020.03;4930010;29;20036;-81
2023/03/21 10:10:55;;;;;;;2.60;0.20;;;;;;;10.78;100.00;99025.13;4936952;29;20035;-81
2023/03/21 10:13:29;;;;;;;2.47;0.28;;;;;;;10.76;100.00;99006.00;4946457;29;20083;-81
2023/03/21 10:16:03;;;;;;;1.80;0.30;;;;;;;10.72;100.00;99002.06;4930101;29;20067;-80
2023/03/21 10:18:31;;;;;;;1.27;0.20;;;;;;;10.65;100.00;99009.09;4946231;28;20035;-81
2023/03/21 10:21:01;;;;;;;4.40;0.70;;;;;;;10.75;100.00;99022.03;4923812;29;20039;-81
2023/03/21 10:23:29;;;;;;;4.35;0.60;;;;;;;10.72;100.00;99017.13;4952631;28;20033;-81
2023/03/21 10:26:03;;;;;;;4.50;0.70;;;;;;;10.81;100.00;99025.78;4933844;29;20412;-81
2023/03/21 10:28:36;;;;;;;3.00;0.70;;;;;;;10.92;100.00;99022.69;4944091;29;20035;-81
2023/03/21 10:31:06;;;;;;;4.35;0.50;;;;;;;10.98;100.00;99029.06;4919223;29;20041;-80
2023/03/21 10:33:38;;;;;;;7.13;0.57;;;;;;;11.07;100.00;99029.81;4934592;29;20050;-81
2023/03/21 10:36:10;;;;;;;3.83;0.50;;;;;;;11.12;100.00;99019.47;4946748;29;20038;-81
2023/03/21 10:38:46;;;;;;;6.55;0.75;;;;;;;11.16;100.00;99028.72;4930941;29;20031;-81
2023/03/21 10:41:15;;;;;;;5.82;0.52;;;;;;;11.13;100.00;99029.06;4899409;28;20067;-81
2023/03/21 10:43:44;;;;;;;5.88;0.80;;;;;;;11.15;100.00;99027.88;4929602;29;20032;-81
2023/03/21 10:46:17;;;;;;;11.13;0.75;;;;;;;11.26;100.00;99018.66;4933187;29;20125;-80
2023/03/21 10:48:52;;;;;;;3.33;0.40;;;;;;;11.44;100.00;99033.31;4948735;29;20481;-80
2023/03/21 10:51:33;;;;;;;2.78;0.50;;;;;;;11.45;100.00;99026.22;4929774;29;20043;-81
2023/03/21 10:54:12;;;;;;;2.88;0.60;;;;;;;11.45;100.00;99016.44;4933018;29;20492;-81
2023/03/21 10:56:58;;;;;;;5.05;0.57;;;;;;;11.52;100.00;99025.28;4937950;28;20061;-81
2023/03/21 10:59:39;;;;;;;3.97;0.55;;;;;;;11.48;100.00;99025.84;4951160;28;20038;-81
2023/03/21 11:02:19;;;;;;;4.32;0.80;;;;;;;11.41;100.00;99008.06;4967782;28;20079;-81
2023/03/21 11:04:51;;;;;;;5.00;0.50;;;;;;;11.31;100.00;99018.09;4947300;28;20491;-80
2023/03/21 11:07:24;;;;;;;3.30;0.52;;;;;;;11.33;100.00;99020.56;4956375;28;20087;-80
2023/03/21 11:09:57;;;;;;;4.53;0.77;;;;;;;11.27;100.00;99024.78;4968032;28;20450;-81
2023/03/21 11:12:39;;;;;;;5.53;0.60;;;;;;;11.26;100.00;99016.00;4963898;28;20027;-81
2023/03/21 11:15:26;;;;;;;7.57;0.85;;;;;;;11.24;100.00;99019.84;4952864;28;20385;-81
2023/03/21 11:17:56;;;;;;;6.07;0.50;;;;;;;11.18;100.00;99031.16;4944307;28;20507;-80
2023/03/21 11:20:31;;;;;;;6.57;1.23;;;;;;;11.11;100.00;99023.13;4944861;28;20106;-81
2023/03/21 11:23:03;;;;;;;2.58;0.50;;;;;;;11.06;100.00;99028.16;4956139;28;20527;-80
2023/03/21 11:25:42;;;;;;;5.20;0.82;;;;;;;10.99;100.00;99026.22;4949163;28;20126;-80
2023/03/21 11:28:16;;;;;;;5.45;0.80;;;;;;;10.98;100.00;99019.31;4963233;28;20043;-80
2023/03/21 11:30:52;;;;;;;3.08;0.45;;;;;;;10.97;100.00;98999.19;4942725;28;20031;-81
2023/03/21 11:33:26;;;;;;;5.32;0.80;;;;;;;10.91;100.00;99010.44;4948263;28;20480;-81
2023/03/21 11:36:03;;;;;;;2.05;0.40;;;;;;;10.88;100.00;99009.00;4944025;28;20032;-80
2023/03/21 11:38:37;;;;;;;6.75;0.70;;;;;;;10.92;100.00;99001.53;4932840;28;20035;-81
2023/03/21 11:41:07;;;;;;;6.38;0.73;;;;;;;10.99;100.00;99002.44;4951164;28;20041;-81
2023/03/21 11:43:38;;;;;;;8.23;0.88;;;;;;;11.09;100.00;98993.41;4953033;28;20106;-81
2023/03/21 11:46:13;;;;;;;4.72;0.88;;;;;;;11.14;100.00;98991.03;4945556;28;20039;-81
2023/03/21 11:48:47;;;;;;;5.45;0.75;;;;;;;11.19;100.00;98996.59;4929492;28;20037;-81
2023/03/21 11:51:41;;;;;;;7.45;0.80;;;;;;;11.22;100.00;98998.88;4944788;28;20027;-80
2023/03/21 11:54:27;;;;;;;5.72;1.10;;;;;;;11.22;100.00;98998.88;4934026;28;20389;-81
2023/03/21 11:57:07;;;;;;;7.40;0.93;;;;;;;11.30;100.00;98997.94;4945670;28;20110;-80
2023/03/21 11:59:46;;;;;;;7.70;0.98;;;;;;;11.37;100.00;98990.09;4924096;29;20048;-80
2023/03/21 12:02:36;;;;;;;8.52;1.17;;;;;;;11.39;100.00;98996.00;4936451;29;20031;-81